createdAt,value
2018-12-16T00:01:16.820Z,50.10
2018-12-16T00:03:46.404Z,50.10
2018-12-16T00:06:16.084Z,50.10
2018-12-16T00:08:43.889Z,50.10
2018-12-16T00:11:11.761Z,50.10
2018-12-16T00:13:40.434Z,50.70
2018-12-16T00:16:08.219Z,50.10
2018-12-16T00:18:36.235Z,50.10
2018-12-16T00:21:03.814Z,50.00
2018-12-16T00:23:31.676Z,50.10
2018-12-16T00:25:59.287Z,50.10
2018-12-16T00:28:26.921Z,50.10
2018-12-16T00:30:55.099Z,50.10
2018-12-16T00:33:23.065Z,50.10
2018-12-16T00:35:50.661Z,50.10
2018-12-16T00:38:18.305Z,50.10
2018-12-16T00:40:45.891Z,50.00
2018-12-16T00:43:13.575Z,50.10
2018-12-16T00:45:41.156Z,50.10
2018-12-16T00:48:08.805Z,50.10
2018-12-16T00:50:36.442Z,50.10
2018-12-16T00:53:04.298Z,50.10
2018-12-16T00:55:31.892Z,50.00
2018-12-16T00:57:59.463Z,50.10
2018-12-16T01:00:27.063Z,50.00
2018-12-16T01:02:54.848Z,50.10
2018-12-16T01:05:22.534Z,50.10
2018-12-16T01:07:50.263Z,50.00
2018-12-16T01:10:17.907Z,50.00
2018-12-16T01:12:45.544Z,50.00
2018-12-16T01:15:13.138Z,50.10
2018-12-16T01:17:41.008Z,50.10
2018-12-16T01:20:08.682Z,50.10
2018-12-16T01:22:43.254Z,50.10
2018-12-16T01:25:08.301Z,50.00
2018-12-16T01:27:36.079Z,50.10
2018-12-16T01:30:04.530Z,50.00
2018-12-16T01:32:32.259Z,50.10
2018-12-16T01:34:59.925Z,50.10
2018-12-16T01:40:00.923Z,50.00
2018-12-16T01:42:28.716Z,50.00
2018-12-16T01:44:56.743Z,50.10
2018-12-16T01:47:24.434Z,50.10
2018-12-16T01:49:52.015Z,50.00
2018-12-16T01:52:21.977Z,50.00
2018-12-16T01:54:49.875Z,50.00
2018-12-16T01:57:17.533Z,50.00
2018-12-16T01:59:45.292Z,50.00
2018-12-16T02:02:13.171Z,50.10
2018-12-16T02:04:40.777Z,50.60
2018-12-16T02:07:08.435Z,50.00
2018-12-16T02:09:36.158Z,50.00
2018-12-16T02:12:03.829Z,50.00
2018-12-16T02:14:31.628Z,50.00
2018-12-16T02:16:59.254Z,50.00
2018-12-16T02:19:26.863Z,50.10
2018-12-16T02:21:54.537Z,50.00
2018-12-16T02:24:22.371Z,50.00
2018-12-16T02:26:50.028Z,50.00
2018-12-16T02:29:17.648Z,50.60
2018-12-16T02:31:45.409Z,50.00
2018-12-16T02:34:13.022Z,50.00
2018-12-16T02:36:40.666Z,50.00
2018-12-16T02:39:08.462Z,50.00
2018-12-16T02:41:36.213Z,50.00
2018-12-16T02:44:03.834Z,50.00
2018-12-16T02:46:31.522Z,49.90
2018-12-16T02:48:59.122Z,50.00
2018-12-16T02:51:27.828Z,50.00
2018-12-16T02:53:55.635Z,50.00
2018-12-16T02:56:23.217Z,49.90
2018-12-16T02:58:50.812Z,49.90
2018-12-16T03:01:18.455Z,50.00
2018-12-16T03:03:46.078Z,49.90
2018-12-16T03:06:13.691Z,49.90
2018-12-16T03:08:41.354Z,49.90
2018-12-16T03:11:15.758Z,50.00
2018-12-16T03:13:43.372Z,49.90
2018-12-16T03:16:11.075Z,49.90
2018-12-16T03:18:39.166Z,49.90
2018-12-16T03:21:06.849Z,50.00
2018-12-16T03:23:34.616Z,49.90
2018-12-16T03:26:02.219Z,49.90
2018-12-16T03:28:29.783Z,49.90
2018-12-16T03:30:57.350Z,49.90
2018-12-16T03:33:24.967Z,49.90
2018-12-16T03:35:54.222Z,49.90
2018-12-16T03:38:23.952Z,49.90
2018-12-16T03:40:53.497Z,49.90
2018-12-16T03:43:21.910Z,49.90
2018-12-16T03:45:49.906Z,49.90
2018-12-16T03:48:17.555Z,49.90
2018-12-16T03:50:45.179Z,49.90
2018-12-16T03:53:19.434Z,49.90
2018-12-16T03:55:42.521Z,49.90
2018-12-16T03:58:10.320Z,50.30
2018-12-16T04:00:38.387Z,49.90
2018-12-16T04:03:06.036Z,49.90
2018-12-16T04:05:33.692Z,49.90
2018-12-16T04:08:01.308Z,49.90
2018-12-16T04:10:28.991Z,49.90
2018-12-16T04:12:56.512Z,49.90
2018-12-16T04:15:24.117Z,49.90
2018-12-16T04:17:51.735Z,50.50
2018-12-16T04:20:19.661Z,49.90
2018-12-16T04:22:47.260Z,49.80
2018-12-16T04:25:14.979Z,49.80
2018-12-16T04:27:42.556Z,49.90
2018-12-16T04:30:10.372Z,49.80
2018-12-16T04:32:39.018Z,49.90
2018-12-16T04:35:06.844Z,49.90
2018-12-16T04:37:34.567Z,49.80
2018-12-16T04:40:02.478Z,49.90
2018-12-16T04:42:30.201Z,49.90
2018-12-16T04:44:58.011Z,49.90
2018-12-16T04:47:25.674Z,49.80
2018-12-16T04:49:53.214Z,49.90
2018-12-16T04:52:21.176Z,50.00
2018-12-16T04:54:48.888Z,49.90
2018-12-16T04:57:16.612Z,49.90
2018-12-16T04:59:44.211Z,49.80
2018-12-16T05:02:12.157Z,49.90
2018-12-16T05:04:40.069Z,49.80
2018-12-16T05:07:07.739Z,49.80
2018-12-16T05:09:35.371Z,49.80
2018-12-16T05:12:03.047Z,49.90
2018-12-16T05:14:30.616Z,49.80
2018-12-16T05:16:59.449Z,49.80
2018-12-16T05:19:27.553Z,49.90
2018-12-16T05:21:55.312Z,49.80
2018-12-16T05:24:23.012Z,49.80
2018-12-16T05:26:50.844Z,49.80
2018-12-16T05:29:18.688Z,49.90
2018-12-16T05:31:46.343Z,49.80
2018-12-16T05:34:13.997Z,49.80
2018-12-16T05:36:41.607Z,49.80
2018-12-16T05:39:09.335Z,49.80
2018-12-16T05:41:37.050Z,49.80
2018-12-16T05:44:05.546Z,49.80
2018-12-16T05:46:33.397Z,49.80
2018-12-16T05:49:01.048Z,49.80
2018-12-16T05:51:28.669Z,49.80
2018-12-16T05:53:56.563Z,49.80
2018-12-16T05:56:24.436Z,49.90
2018-12-16T05:58:52.071Z,49.80
2018-12-16T06:01:19.700Z,49.80
2018-12-16T06:03:47.464Z,49.80
2018-12-16T06:06:15.111Z,49.80
2018-12-16T06:08:42.756Z,49.80
2018-12-16T06:11:10.523Z,50.40
2018-12-16T06:13:38.716Z,49.80
2018-12-16T06:16:06.487Z,49.80
2018-12-16T06:18:34.105Z,49.80
2018-12-16T06:21:01.764Z,49.80
2018-12-16T06:23:29.515Z,49.80
2018-12-16T06:25:57.199Z,49.80
2018-12-16T06:28:24.936Z,49.80
2018-12-16T06:30:52.991Z,49.80
2018-12-16T06:33:20.615Z,49.80
2018-12-16T06:35:48.191Z,49.80
2018-12-16T06:38:15.870Z,49.80
2018-12-16T06:40:43.582Z,49.80
2018-12-16T06:43:11.227Z,49.80
2018-12-16T06:45:40.003Z,49.80
2018-12-16T06:48:07.612Z,49.80
2018-12-16T06:50:35.255Z,49.80
2018-12-16T06:53:03.254Z,49.80
2018-12-16T06:55:31.159Z,49.80
2018-12-16T06:57:58.735Z,49.80
2018-12-16T07:00:26.328Z,49.80
2018-12-16T07:02:54.225Z,49.80
2018-12-16T07:05:21.859Z,49.80
2018-12-16T07:07:49.603Z,49.80
2018-12-16T07:10:17.595Z,49.80
2018-12-16T07:13:11.497Z,49.80
2018-12-16T07:15:40.052Z,49.80
2018-12-16T07:18:07.745Z,49.80
2018-12-16T07:20:36.567Z,49.80
2018-12-16T07:23:04.391Z,49.80
2018-12-16T07:25:32.161Z,49.70
2018-12-16T07:27:59.788Z,49.80
2018-12-16T07:30:27.403Z,49.80
2018-12-16T07:32:55.296Z,49.70
2018-12-16T07:35:22.939Z,49.70
2018-12-16T07:37:53.294Z,49.70
2018-12-16T07:40:21.287Z,49.80
2018-12-16T07:42:49.016Z,49.70
2018-12-16T07:45:16.733Z,49.80
2018-12-16T07:47:44.363Z,49.70
2018-12-16T07:50:12.253Z,49.70
2018-12-16T07:52:39.897Z,49.70
2018-12-16T07:55:07.491Z,49.70
2018-12-16T07:57:35.805Z,49.70
2018-12-16T08:00:05.343Z,49.70
2018-12-16T08:02:32.949Z,49.70
2018-12-16T08:05:00.562Z,49.70
2018-12-16T08:07:28.168Z,49.70
2018-12-16T08:09:55.891Z,49.80
2018-12-16T08:12:23.820Z,49.70
2018-12-16T08:14:51.491Z,49.70
2018-12-16T08:17:19.093Z,49.70
2018-12-16T08:19:46.744Z,49.70
2018-12-16T08:22:14.615Z,50.40
2018-12-16T08:24:42.228Z,49.70
2018-12-16T08:27:10.006Z,49.70
2018-12-16T08:29:38.341Z,49.80
2018-12-16T08:32:05.831Z,49.70
2018-12-16T08:34:33.406Z,49.70
2018-12-16T08:37:00.992Z,49.70
2018-12-16T08:39:28.586Z,49.70
2018-12-16T08:41:56.222Z,49.70
2018-12-16T08:44:23.746Z,49.70
2018-12-16T08:46:51.409Z,49.80
2018-12-16T08:49:19.051Z,49.70
2018-12-16T08:51:46.667Z,49.70
2018-12-16T08:54:14.334Z,49.70
2018-12-16T08:56:42.089Z,49.80
2018-12-16T08:59:09.725Z,49.70
2018-12-16T09:01:37.733Z,49.70
2018-12-16T09:04:05.896Z,49.80
2018-12-16T09:06:34.107Z,49.80
2018-12-16T09:09:02.208Z,49.70
2018-12-16T09:11:31.522Z,49.80
2018-12-16T09:13:59.070Z,49.70
2018-12-16T09:16:26.693Z,50.00
2018-12-16T09:18:55.283Z,49.70
2018-12-16T09:21:23.007Z,49.70
2018-12-16T09:23:54.175Z,49.70
2018-12-16T09:26:23.023Z,49.80
2018-12-16T09:28:50.977Z,49.70
2018-12-16T09:31:19.020Z,49.70
2018-12-16T09:33:46.562Z,49.30
2018-12-16T09:36:14.175Z,49.70
2018-12-16T09:38:41.805Z,49.70
2018-12-16T09:41:09.521Z,49.70
2018-12-16T09:43:37.322Z,49.80
2018-12-16T09:46:06.261Z,49.80
2018-12-16T09:48:33.972Z,49.80
2018-12-16T09:51:01.674Z,49.70
2018-12-16T09:53:29.228Z,49.80
2018-12-16T09:55:57.070Z,49.80
2018-12-16T09:58:25.007Z,49.80
2018-12-16T10:00:52.649Z,49.70
2018-12-16T10:03:20.327Z,49.70
2018-12-16T10:05:48.061Z,49.70
2018-12-16T10:08:15.679Z,49.70
2018-12-16T10:10:43.403Z,49.70
2018-12-16T10:13:10.971Z,49.90
2018-12-16T10:15:38.832Z,49.80
2018-12-16T10:18:06.473Z,49.80
2018-12-16T10:20:34.126Z,49.70
2018-12-16T10:23:01.740Z,49.70
2018-12-16T10:25:29.427Z,49.70
2018-12-16T10:27:58.113Z,49.80
2018-12-16T10:30:25.715Z,49.70
2018-12-16T10:32:53.340Z,49.80
2018-12-16T10:35:20.933Z,49.80
2018-12-16T10:37:48.557Z,49.70
2018-12-16T10:40:16.630Z,49.70
2018-12-16T10:42:44.195Z,49.70
2018-12-16T10:45:12.918Z,49.70
2018-12-16T10:47:40.537Z,49.70
2018-12-16T10:50:08.261Z,49.70
2018-12-16T10:52:36.559Z,49.70
2018-12-16T10:55:04.476Z,49.70
2018-12-16T10:57:32.268Z,49.70
2018-12-16T11:00:00.059Z,49.70
2018-12-16T11:02:27.753Z,49.70
2018-12-16T11:04:55.444Z,49.80
2018-12-16T11:07:23.581Z,49.70
2018-12-16T11:09:51.475Z,49.70
2018-12-16T11:12:19.682Z,49.70
2018-12-16T11:14:47.315Z,49.80
2018-12-16T11:17:14.877Z,49.80
2018-12-16T11:19:42.848Z,49.70
2018-12-16T11:22:10.559Z,49.70
2018-12-16T11:24:38.690Z,49.80
2018-12-16T11:27:06.384Z,49.70
2018-12-16T11:29:34.141Z,49.80
2018-12-16T11:32:01.706Z,49.80
2018-12-16T11:34:29.304Z,49.70
2018-12-16T11:36:56.931Z,49.70
2018-12-16T11:39:24.595Z,49.70
2018-12-16T11:41:52.365Z,49.70
2018-12-16T11:44:20.135Z,49.70
2018-12-16T11:46:47.858Z,49.70
2018-12-16T11:49:15.463Z,49.70
2018-12-16T11:51:43.498Z,49.70
2018-12-16T11:54:11.239Z,49.70
2018-12-16T11:56:40.594Z,49.70
2018-12-16T11:59:09.635Z,49.60
2018-12-16T12:01:38.257Z,49.70
2018-12-16T12:04:08.917Z,49.70
2018-12-16T12:06:38.754Z,49.70
2018-12-16T12:09:06.635Z,49.60
2018-12-16T12:11:35.661Z,49.70
2018-12-16T12:14:04.527Z,49.60
2018-12-16T12:16:32.150Z,49.60
2018-12-16T12:19:00.691Z,49.60
2018-12-16T12:21:28.565Z,49.70
2018-12-16T12:23:56.417Z,49.60
2018-12-16T12:26:24.295Z,49.60
2018-12-16T12:28:51.971Z,49.60
2018-12-16T12:31:19.536Z,49.60
2018-12-16T12:33:47.183Z,49.60
2018-12-16T12:36:14.953Z,49.60
2018-12-16T12:38:42.893Z,49.60
2018-12-16T12:41:10.532Z,49.60
2018-12-16T12:43:38.549Z,49.60
2018-12-16T12:46:06.396Z,49.00
2018-12-16T12:48:34.137Z,49.60
2018-12-16T12:51:01.791Z,49.60
2018-12-16T12:53:29.516Z,49.60
2018-12-16T12:55:58.338Z,49.60
2018-12-16T12:58:26.071Z,49.50
2018-12-16T13:00:54.001Z,49.60
2018-12-16T13:03:22.529Z,49.60
2018-12-16T13:05:50.299Z,49.60
2018-12-16T13:08:17.900Z,49.50
2018-12-16T13:10:45.623Z,49.50
2018-12-16T13:13:13.347Z,49.40
2018-12-16T13:15:41.057Z,49.30
2018-12-16T13:18:08.919Z,49.30
2018-12-16T13:20:36.680Z,49.30
2018-12-16T13:23:05.148Z,49.30
2018-12-16T13:25:45.360Z,49.30
2018-12-16T13:28:13.353Z,49.40
2018-12-16T13:30:40.991Z,49.40
2018-12-16T13:33:08.707Z,49.50
2018-12-16T13:35:36.236Z,49.50
2018-12-16T13:38:03.923Z,49.50
2018-12-16T13:40:32.060Z,49.50
2018-12-16T13:42:59.626Z,50.20
2018-12-16T13:45:27.196Z,49.60
2018-12-16T13:47:55.286Z,49.60
2018-12-16T13:50:25.292Z,49.60
2018-12-16T13:52:53.041Z,49.60
2018-12-16T13:55:20.753Z,49.60
2018-12-16T13:57:48.881Z,49.70
2018-12-16T14:00:16.538Z,49.60
2018-12-16T14:02:45.701Z,49.60
2018-12-16T14:05:13.676Z,49.60
2018-12-16T14:07:41.643Z,49.60
2018-12-16T14:10:09.385Z,49.60
2018-12-16T14:12:37.179Z,49.70
2018-12-16T14:15:04.968Z,49.60
2018-12-16T14:17:33.739Z,49.60
2018-12-16T14:20:02.440Z,49.60
2018-12-16T14:22:30.185Z,49.50
2018-12-16T14:24:57.807Z,49.50
2018-12-16T14:27:25.514Z,49.50
2018-12-16T14:29:53.118Z,49.70
2018-12-16T14:32:20.959Z,49.60
2018-12-16T14:34:48.583Z,49.60
2018-12-16T14:37:16.297Z,49.60
2018-12-16T14:39:44.093Z,49.50
2018-12-16T14:42:11.764Z,49.50
2018-12-16T14:44:39.790Z,49.60
2018-12-16T14:47:07.444Z,49.60
2018-12-16T14:49:35.910Z,49.50
2018-12-16T14:52:03.687Z,50.20
2018-12-16T14:54:31.602Z,49.50
2018-12-16T14:56:59.276Z,49.50
2018-12-16T14:59:26.939Z,49.50
2018-12-16T15:01:54.703Z,49.60
2018-12-16T15:04:22.316Z,49.50
2018-12-16T15:06:49.896Z,49.60
2018-12-16T15:09:17.539Z,49.50
2018-12-16T15:11:45.162Z,49.50
2018-12-16T15:14:12.958Z,49.50
2018-12-16T15:16:40.984Z,49.50
2018-12-16T15:19:08.832Z,49.60
2018-12-16T15:21:37.637Z,49.60
2018-12-16T15:24:06.818Z,49.50
2018-12-16T15:26:34.556Z,49.50
2018-12-16T15:29:02.455Z,49.60
2018-12-16T15:31:30.043Z,49.60
2018-12-16T15:33:57.946Z,49.80
2018-12-16T15:36:25.659Z,49.60
2018-12-16T15:38:53.325Z,49.40
2018-12-16T15:41:21.006Z,49.60
2018-12-16T15:43:48.846Z,49.50
2018-12-16T15:46:17.893Z,49.50
2018-12-16T15:48:45.786Z,49.50
2018-12-16T15:51:15.636Z,49.60
2018-12-16T15:53:43.742Z,49.70
2018-12-16T15:56:12.385Z,49.80
2018-12-16T15:58:42.382Z,49.80
2018-12-16T16:01:11.537Z,49.70
2018-12-16T16:03:40.009Z,49.60
2018-12-16T16:06:14.727Z,49.50
2018-12-16T16:08:42.219Z,49.50
2018-12-16T16:11:09.771Z,49.30
2018-12-16T16:13:38.824Z,49.30
2018-12-16T16:16:06.703Z,49.90
2018-12-16T16:18:35.312Z,49.90
2018-12-16T16:21:02.945Z,49.30
2018-12-16T16:23:30.531Z,49.20
2018-12-16T16:25:58.113Z,49.40
2018-12-16T16:28:25.614Z,49.50
2018-12-16T16:30:54.375Z,49.50
2018-12-16T16:33:22.526Z,49.50
2018-12-16T16:35:50.088Z,49.40
2018-12-16T16:38:17.814Z,49.50
2018-12-16T16:40:45.760Z,49.40
2018-12-16T16:43:13.584Z,49.50
2018-12-16T16:45:41.218Z,49.40
2018-12-16T16:48:09.145Z,49.40
2018-12-16T16:50:36.855Z,49.40
2018-12-16T16:53:05.009Z,49.30
2018-12-16T16:55:32.695Z,49.40
2018-12-16T16:58:00.468Z,49.50
2018-12-16T17:00:28.067Z,49.60
2018-12-16T17:02:56.643Z,49.60
2018-12-16T17:05:24.249Z,49.60
2018-12-16T17:07:51.855Z,49.70
2018-12-16T17:10:19.567Z,49.80
2018-12-16T17:12:47.622Z,49.80
2018-12-16T17:15:15.592Z,49.90
2018-12-16T17:17:43.262Z,49.90
2018-12-16T17:20:11.152Z,49.80
2018-12-16T17:22:39.213Z,49.80
2018-12-16T17:25:07.067Z,49.90
2018-12-16T17:27:34.921Z,49.90
2018-12-16T17:30:02.644Z,49.90
2018-12-16T17:32:30.373Z,50.00
2018-12-16T17:34:58.043Z,49.90
2018-12-16T17:37:25.886Z,50.60
2018-12-16T17:39:53.694Z,50.00
2018-12-16T17:42:21.939Z,50.00
2018-12-16T17:44:49.618Z,50.00
2018-12-16T17:47:18.399Z,50.00
2018-12-16T17:49:46.031Z,50.00
2018-12-16T17:52:13.793Z,50.00
2018-12-16T17:54:42.214Z,50.00
2018-12-16T17:57:09.835Z,50.00
2018-12-16T17:59:37.646Z,50.00
2018-12-16T18:02:05.955Z,50.00
2018-12-16T18:04:33.824Z,50.00
2018-12-16T18:07:01.425Z,50.00
2018-12-16T18:09:29.150Z,50.00
2018-12-16T18:11:56.915Z,50.10
2018-12-16T18:14:25.725Z,50.00
2018-12-16T18:16:54.444Z,50.00
2018-12-16T18:19:22.428Z,50.00
2018-12-16T18:21:50.074Z,50.00
2018-12-16T18:24:17.658Z,50.00
2018-12-16T18:26:45.213Z,50.60
2018-12-16T18:29:12.867Z,50.00
2018-12-16T18:31:40.662Z,50.00
2018-12-16T18:34:08.319Z,50.00
2018-12-16T18:36:36.092Z,50.00
2018-12-16T18:39:08.002Z,49.90
2018-12-16T18:41:35.785Z,49.90
2018-12-16T18:44:04.813Z,50.00
2018-12-16T18:46:34.027Z,50.00
2018-12-16T18:49:01.860Z,50.00
2018-12-16T18:51:29.459Z,50.00
2018-12-16T18:53:57.215Z,50.00
2018-12-16T18:56:24.886Z,50.00
2018-12-16T18:58:52.436Z,50.00
2018-12-16T19:01:19.991Z,50.00
2018-12-16T19:03:47.653Z,50.60
2018-12-16T19:06:15.353Z,49.90
2018-12-16T19:08:43.302Z,49.90
2018-12-16T19:11:10.903Z,49.90
2018-12-16T19:13:39.256Z,49.90
2018-12-16T19:16:06.854Z,49.90
2018-12-16T19:18:34.909Z,49.90
2018-12-16T19:21:02.851Z,49.90
2018-12-16T19:23:30.464Z,49.90
2018-12-16T19:25:58.318Z,49.90
2018-12-16T19:28:26.041Z,50.50
2018-12-16T19:30:53.652Z,49.90
2018-12-16T19:33:21.359Z,50.00
2018-12-16T19:35:48.899Z,49.90
2018-12-16T19:38:17.395Z,49.90
2018-12-16T19:40:45.202Z,49.90
2018-12-16T19:43:13.500Z,50.30
2018-12-16T19:45:42.193Z,50.50
2018-12-16T19:48:11.055Z,49.60
2018-12-16T19:50:39.146Z,50.10
2018-12-16T19:53:06.876Z,49.90
2018-12-16T19:55:34.724Z,49.90
2018-12-16T19:58:02.357Z,49.90
2018-12-16T20:00:30.299Z,49.90
2018-12-16T20:02:58.083Z,49.90
2018-12-16T20:05:25.706Z,49.90
2018-12-16T20:07:53.285Z,49.90
2018-12-16T20:10:20.865Z,49.90
2018-12-16T20:12:48.504Z,49.90
2018-12-16T20:15:16.324Z,49.90
2018-12-16T20:17:43.926Z,50.00
2018-12-16T20:20:11.747Z,49.90
2018-12-16T20:22:39.865Z,49.80
2018-12-16T20:25:07.500Z,49.80
2018-12-16T20:27:35.281Z,49.90
2018-12-16T20:30:03.001Z,49.90
2018-12-16T20:32:30.646Z,49.90
2018-12-16T20:34:58.254Z,49.90
2018-12-16T20:37:26.091Z,49.90
2018-12-16T20:39:53.650Z,49.90
2018-12-16T20:42:21.250Z,50.60
2018-12-16T20:44:48.877Z,49.90
2018-12-16T20:47:16.490Z,49.90
2018-12-16T20:49:44.013Z,49.90
2018-12-16T20:52:11.837Z,49.90
2018-12-16T20:54:39.882Z,49.90
2018-12-16T20:57:07.735Z,49.90
2018-12-16T20:59:35.558Z,49.90
2018-12-16T21:02:03.184Z,49.90
2018-12-16T21:04:31.194Z,49.80
2018-12-16T21:06:58.848Z,49.90
2018-12-16T21:09:26.537Z,49.80
2018-12-16T21:12:00.295Z,50.50
2018-12-16T21:14:34.660Z,50.00
2018-12-16T21:18:07.816Z,49.90
2018-12-16T21:20:35.348Z,49.80
2018-12-16T21:23:03.046Z,49.90
2018-12-16T21:25:30.670Z,49.90
2018-12-16T21:27:58.206Z,50.00
2018-12-16T21:30:25.914Z,49.90
2018-12-16T21:32:53.474Z,50.00
2018-12-16T21:35:21.294Z,49.90
2018-12-16T21:37:48.882Z,49.90
2018-12-16T21:40:16.767Z,49.90
2018-12-16T21:42:44.480Z,49.90
2018-12-16T21:45:12.108Z,49.90
2018-12-16T21:47:39.763Z,49.90
2018-12-16T21:50:07.491Z,49.90
2018-12-16T21:52:35.630Z,49.90
2018-12-16T21:55:03.216Z,49.90
2018-12-16T21:57:33.227Z,49.90
2018-12-16T22:00:01.123Z,49.90
2018-12-16T22:02:28.911Z,49.80
2018-12-16T22:04:56.517Z,49.90
2018-12-16T22:07:24.268Z,49.80
2018-12-16T22:09:51.939Z,49.90
2018-12-16T22:12:19.824Z,49.80
2018-12-16T22:14:47.396Z,49.80
2018-12-16T22:17:14.992Z,49.80
2018-12-16T22:19:42.567Z,49.80
2018-12-16T22:22:10.286Z,49.80
2018-12-16T22:24:38.891Z,49.80
2018-12-16T22:27:06.468Z,49.80
2018-12-16T22:29:34.102Z,49.80
2018-12-16T22:32:01.647Z,49.80
2018-12-16T22:34:29.276Z,49.90
2018-12-16T22:36:56.868Z,49.80
2018-12-16T22:39:24.567Z,49.80
2018-12-16T22:41:52.213Z,49.90
2018-12-16T22:44:19.839Z,49.90
2018-12-16T22:46:47.389Z,50.50
2018-12-16T22:49:14.958Z,49.90
2018-12-16T22:51:42.595Z,49.90
2018-12-16T22:54:10.294Z,49.90
2018-12-16T22:56:38.264Z,49.90
2018-12-16T22:59:06.111Z,49.80
2018-12-16T23:01:33.747Z,49.90
2018-12-16T23:04:01.407Z,49.90
2018-12-16T23:06:29.350Z,49.90
2018-12-16T23:08:56.936Z,49.90
2018-12-16T23:11:24.531Z,49.90
2018-12-16T23:13:52.142Z,49.90
2018-12-16T23:16:19.776Z,49.90
2018-12-16T23:18:47.710Z,49.90
2018-12-16T23:21:15.391Z,49.80
2018-12-16T23:23:42.918Z,49.90
2018-12-16T23:26:10.537Z,49.80
2018-12-16T23:28:38.759Z,49.80
2018-12-16T23:31:06.427Z,49.80
2018-12-16T23:33:34.261Z,49.80
2018-12-16T23:36:01.827Z,49.80
2018-12-16T23:38:29.416Z,49.80
2018-12-16T23:40:57.040Z,49.80
2018-12-16T23:43:24.819Z,49.80
2018-12-16T23:45:52.358Z,49.90
2018-12-16T23:48:19.927Z,49.80
2018-12-16T23:50:47.504Z,49.80
2018-12-16T23:53:15.347Z,49.80
2018-12-16T23:55:42.931Z,49.80
2018-12-16T23:58:10.666Z,49.90
